Time;durP1;ratioP1;P1;durP2;ratioP2;P2;SDS_P1;SDS_P2;PMS_P1;PMS_P2;Temp;Humidity;BMP_temperature;BMP_pressure;BME280_temperature;BME280_humidity;BME280_pressure;Samples;Min_cycle;Max_cycle;Signal;HPM_P1;HPM_P2
2022/07/22 00:01:49;;;;;;;29.03;24.50;;;;;;;18.97;100.00;101676.78;5072355;28;20180;-74
2022/07/22 00:04:16;;;;;;;28.20;25.20;;;;;;;18.99;100.00;101678.50;5072432;28;20602;-73
2022/07/22 00:06:42;;;;;;;31.53;27.87;;;;;;;18.97;100.00;101679.38;5072247;28;20654;-73
2022/07/22 00:09:07;;;;;;;31.43;28.10;;;;;;;18.99;100.00;101681.09;5072309;28;20219;-74
2022/07/22 00:11:34;;;;;;;31.37;27.63;;;;;;;19.02;100.00;101682.81;5089757;28;20185;-74
2022/07/22 00:13:59;;;;;;;33.80;30.07;;;;;;;19.00;100.00;101684.53;5090039;28;20187;-74
2022/07/22 00:16:25;;;;;;;34.90;29.83;;;;;;;19.00;100.00;101685.41;5071833;28;20200;-74
2022/07/22 00:18:51;;;;;;;38.07;31.20;;;;;;;18.99;100.00;101682.81;5089991;28;20255;-73
2022/07/22 00:21:16;;;;;;;36.07;31.57;;;;;;;18.98;100.00;101674.16;5090147;28;20192;-74
2022/07/22 00:23:42;;;;;;;40.27;32.00;;;;;;;18.95;100.00;101681.09;5089969;28;20604;-74
2022/07/22 00:26:07;;;;;;;40.50;33.20;;;;;;;18.96;100.00;101681.09;5089709;28;20229;-73
2022/07/22 00:28:33;;;;;;;38.57;32.20;;;;;;;18.97;100.00;101679.38;5071453;28;20355;-73
2022/07/22 00:30:58;;;;;;;43.93;31.83;;;;;;;18.97;100.00;101680.22;5071356;28;20188;-74
2022/07/22 00:33:24;;;;;;;37.60;32.63;;;;;;;18.99;100.00;101688.88;5072007;28;20229;-74
2022/07/22 00:35:49;;;;;;;41.97;33.23;;;;;;;19.01;100.00;101681.06;5089784;28;20188;-73
2022/07/22 00:38:15;;;;;;;42.00;33.43;;;;;;;19.01;100.00;101683.66;5089663;28;20191;-74
2022/07/22 00:40:40;;;;;;;42.63;34.87;;;;;;;19.01;100.00;101678.47;5071582;28;20216;-74
2022/07/22 00:43:06;;;;;;;43.93;35.53;;;;;;;19.00;100.00;101681.94;5063257;28;20203;-72
2022/07/22 00:45:31;;;;;;;43.40;34.50;;;;;;;19.02;100.00;101680.22;5090275;28;20184;-73
2022/07/22 00:47:57;;;;;;;44.70;34.70;;;;;;;19.05;100.00;101685.38;5089767;28;20249;-74
2022/07/22 00:50:23;;;;;;;42.70;34.67;;;;;;;19.05;100.00;101680.19;5071972;28;20647;-74
2022/07/22 00:52:49;;;;;;;37.67;32.50;;;;;;;19.02;100.00;101685.41;5089929;28;20553;-72
2022/07/22 00:55:16;;;;;;;45.53;35.27;;;;;;;18.99;100.00;101683.69;5089979;28;20599;-74
2022/07/22 00:57:42;;;;;;;44.03;34.47;;;;;;;18.99;100.00;101681.09;5071247;28;20196;-73
2022/07/22 01:00:13;;;;;;;42.67;33.50;;;;;;;19.01;100.00;101678.47;5089223;28;20714;-74
2022/07/22 01:02:38;;;;;;;37.50;31.20;;;;;;;19.01;100.00;101674.16;5089598;28;20231;-74
2022/07/22 01:05:05;;;;;;;43.83;33.80;;;;;;;19.00;100.00;101679.34;5071149;28;20654;-74
2022/07/22 01:07:30;;;;;;;40.80;33.37;;;;;;;19.01;100.00;101678.47;5071204;28;20188;-74
2022/07/22 01:09:56;;;;;;;41.07;34.17;;;;;;;19.02;100.00;101672.44;5054364;28;20298;-74
2022/07/22 01:12:22;;;;;;;41.50;33.33;;;;;;;19.02;100.00;101677.63;5071256;28;20258;-73
2022/07/22 01:14:47;;;;;;;38.77;33.27;;;;;;;19.04;100.00;101671.56;5089325;28;20219;-73
2022/07/22 01:17:13;;;;;;;38.73;32.77;;;;;;;19.05;100.00;101686.25;5089262;28;20611;-74
2022/07/22 01:19:38;;;;;;;35.37;28.30;;;;;;;18.92;100.00;101694.94;5071326;28;20199;-73
2022/07/22 01:22:05;;;;;;;30.47;24.83;;;;;;;18.81;100.00;101693.22;5071134;28;20176;-73
2022/07/22 01:24:30;;;;;;;28.07;21.87;;;;;;;18.77;98.89;101697.53;5089389;28;20639;-73
2022/07/22 01:26:56;;;;;;;22.33;19.60;;;;;;;18.76;98.15;101692.34;5089342;28;20204;-74
2022/07/22 01:29:21;;;;;;;20.40;16.77;;;;;;;18.75;97.77;101698.41;5089069;28;20208;-74
2022/07/22 01:31:47;;;;;;;22.30;15.50;;;;;;;18.69;97.75;101699.25;5071416;28;20191;-73
2022/07/22 01:34:12;;;;;;;22.23;15.00;;;;;;;18.68;97.68;101700.13;5071330;28;20184;-73
2022/07/22 01:36:38;;;;;;;20.90;14.37;;;;;;;18.65;97.58;101696.69;5071393;28;20253;-74
2022/07/22 01:39:04;;;;;;;17.47;12.90;;;;;;;18.61;97.39;101697.53;5089083;28;20803;-73
2022/07/22 01:41:29;;;;;;;17.57;12.40;;;;;;;18.62;97.43;101691.47;5054656;28;20196;-72
2022/07/22 01:43:55;;;;;;;15.90;12.30;;;;;;;18.59;97.68;101696.66;5074740;28;20820;-73
2022/07/22 01:46:22;;;;;;;13.57;12.03;;;;;;;18.53;97.66;101699.25;5094284;28;20664;-73
2022/07/22 01:48:52;;;;;;;15.50;11.70;;;;;;;18.52;97.97;101698.38;5058210;28;20670;-73
2022/07/22 01:51:19;;;;;;;12.43;10.73;;;;;;;18.48;97.94;101701.88;5071489;28;20188;-72
2022/07/22 01:53:45;;;;;;;13.47;11.17;;;;;;;18.45;98.08;101709.63;5074478;28;20176;-72
2022/07/22 01:56:11;;;;;;;12.93;10.97;;;;;;;18.45;98.14;101704.44;5092607;28;20253;-73
2022/07/22 01:58:44;;;;;;;13.43;11.87;;;;;;;18.50;97.77;101712.22;5074391;28;20192;-73
2022/07/22 02:01:10;;;;;;;10.47;9.47;;;;;;;18.44;97.52;101712.22;5057545;28;20568;-73
2022/07/22 02:03:37;;;;;;;13.00;10.20;;;;;;;18.47;97.57;101720.03;5057643;28;20204;-73
2022/07/22 02:06:03;;;;;;;11.43;9.20;;;;;;;18.45;97.73;101732.97;5057821;28;20173;-72
2022/07/22 02:08:28;;;;;;;7.67;6.97;;;;;;;18.36;97.11;101730.38;5057192;28;20200;-72
2022/07/22 02:11:14;;;;;;;5.47;4.97;;;;;;;18.29;96.33;101733.75;5090832;28;20261;-72
2022/07/22 02:13:59;;;;;;;6.17;5.53;;;;;;;18.22;96.05;101734.63;5073480;28;20177;-73
2022/07/22 02:16:26;;;;;;;6.07;5.20;;;;;;;18.19;95.79;101731.16;5073647;28;20195;-72
2022/07/22 02:18:52;;;;;;;6.27;5.77;;;;;;;18.14;95.77;101732.88;5057052;28;20196;-74
2022/07/22 02:21:18;;;;;;;7.10;6.40;;;;;;;18.07;95.53;101744.97;5073922;28;20660;-73
2022/07/22 02:23:43;;;;;;;7.00;5.97;;;;;;;17.97;94.61;101739.72;5090576;28;20200;-73
2022/07/22 02:26:10;;;;;;;6.87;4.90;;;;;;;17.90;94.21;101740.56;5074124;28;20223;-73
2022/07/22 02:28:35;;;;;;;7.37;4.90;;;;;;;17.84;94.64;101748.31;5095118;28;20300;-71
2022/07/22 02:31:01;;;;;;;5.70;5.20;;;;;;;17.79;94.36;101756.09;5069524;28;20187;-73
2022/07/22 02:33:26;;;;;;;7.13;5.50;;;;;;;17.78;94.23;101751.72;5073566;28;20627;-73
2022/07/22 02:35:52;;;;;;;7.23;6.63;;;;;;;17.73;94.19;101753.44;5055309;28;20177;-72
2022/07/22 02:38:18;;;;;;;9.03;7.87;;;;;;;17.73;94.19;101757.78;5073184;28;20184;-73
2022/07/22 02:40:43;;;;;;;10.63;8.53;;;;;;;17.67;94.37;101760.31;5073620;28;20205;-72
2022/07/22 02:43:09;;;;;;;9.90;8.90;;;;;;;17.66;94.30;101762.06;5073489;28;20188;-73
2022/07/22 02:45:35;;;;;;;15.43;12.83;;;;;;;17.59;94.25;101762.88;5091796;28;20180;-72
2022/07/22 02:48:00;;;;;;;17.40;12.47;;;;;;;17.50;94.56;101765.41;5091226;28;20224;-71
2022/07/22 02:50:27;;;;;;;15.90;13.30;;;;;;;17.49;94.88;101768.84;5085337;28;20195;-73
2022/07/22 02:52:53;;;;;;;14.33;12.90;;;;;;;17.44;94.83;101762.78;5073075;28;20275;-72
2022/07/22 02:55:23;;;;;;;17.63;14.53;;;;;;;17.36;94.55;101776.50;5072297;28;20279;-73
2022/07/22 02:57:50;;;;;;;14.93;12.80;;;;;;;17.32;94.87;101775.59;5076636;28;20191;-73
2022/07/22 03:00:16;;;;;;;17.17;13.27;;;;;;;17.33;94.98;101785.13;5056372;28;20216;-73
2022/07/22 03:02:44;;;;;;;15.90;11.97;;;;;;;17.37;94.63;101775.66;5072964;28;20557;-73
2022/07/22 03:05:10;;;;;;;12.77;10.53;;;;;;;17.29;94.63;101778.19;5073054;28;20226;-72
2022/07/22 03:07:41;;;;;;;15.10;10.37;;;;;;;17.30;94.58;101779.91;5072605;28;20280;-72
2022/07/22 03:10:09;;;;;;;17.77;10.60;;;;;;;17.29;94.87;101783.38;5072834;28;20264;-73
2022/07/22 03:12:34;;;;;;;14.37;9.10;;;;;;;17.25;94.82;101793.66;5073142;28;20275;-73
2022/07/22 03:15:00;;;;;;;13.50;7.23;;;;;;;17.24;93.93;101787.66;5073199;28;20212;-73
2022/07/22 03:17:26;;;;;;;15.23;8.27;;;;;;;17.24;93.69;101795.41;5072601;28;20192;-73
2022/07/22 03:19:52;;;;;;;13.33;7.23;;;;;;;17.24;94.09;101791.94;5072535;28;20193;-73
2022/07/22 03:22:17;;;;;;;12.87;7.10;;;;;;;17.20;93.94;101788.47;5072528;28;20697;-73
2022/07/22 03:24:43;;;;;;;15.83;7.43;;;;;;;17.20;93.72;101796.25;5072571;28;20222;-73
2022/07/22 03:27:09;;;;;;;12.70;7.20;;;;;;;17.18;94.17;101795.34;5072561;28;20799;-73
2022/07/22 03:29:34;;;;;;;11.07;6.50;;;;;;;17.19;93.86;101794.53;5080887;28;20211;-72
2022/07/22 03:32:00;;;;;;;13.43;7.00;;;;;;;17.17;93.70;101796.22;5090580;28;20179;-72
2022/07/22 03:34:52;;;;;;;12.43;7.30;;;;;;;17.22;93.71;101797.09;5083119;28;20185;-73
2022/07/22 03:37:17;;;;;;;14.30;7.33;;;;;;;17.21;93.93;101790.22;5071948;28;20188;-72
2022/07/22 03:39:43;;;;;;;12.30;7.63;;;;;;;17.21;93.86;101795.38;5071952;28;20197;-71
2022/07/22 03:42:10;;;;;;;10.67;6.73;;;;;;;17.22;93.68;101802.28;5098155;28;20191;-71
2022/07/22 03:44:43;;;;;;;14.37;6.90;;;;;;;17.16;93.66;101801.38;5071998;28;20188;-71
2022/07/22 03:47:09;;;;;;;12.60;6.13;;;;;;;17.10;93.74;101803.91;5072150;28;20176;-70
2022/07/22 03:49:34;;;;;;;10.73;6.57;;;;;;;17.08;93.47;101800.47;5071699;28;20295;-71
2022/07/22 03:52:00;;;;;;;9.10;5.77;;;;;;;17.11;93.31;101805.66;5074679;28;20188;-71
2022/07/22 03:54:25;;;;;;;12.17;6.17;;;;;;;17.10;93.07;101807.38;5035920;28;20193;-71
2022/07/22 03:56:51;;;;;;;11.03;5.10;;;;;;;17.12;92.67;101812.53;5073823;28;20268;-72
2022/07/22 03:59:16;;;;;;;9.67;5.27;;;;;;;17.09;93.17;101807.38;5071569;28;20251;-72
2022/07/22 04:01:42;;;;;;;11.40;5.27;;;;;;;17.09;93.18;101813.38;5071693;28;20220;-73
2022/07/22 04:04:10;;;;;;;14.03;6.00;;;;;;;17.08;93.15;101808.22;5071622;28;20189;-73
2022/07/22 04:06:38;;;;;;;12.43;5.50;;;;;;;17.09;93.47;101810.81;5071141;28;20196;-73
2022/07/22 04:09:15;;;;;;;13.10;5.20;;;;;;;17.09;93.35;101809.97;5071143;28;20294;-73
2022/07/22 04:11:40;;;;;;;11.20;5.83;;;;;;;17.07;93.68;101807.34;5070660;28;20264;-73
2022/07/22 04:14:08;;;;;;;11.93;5.67;;;;;;;17.03;93.99;101813.34;5071937;28;20672;-73
2022/07/22 04:16:34;;;;;;;8.47;5.47;;;;;;;17.03;93.92;101810.75;5068323;28;20192;-73
2022/07/22 04:19:05;;;;;;;10.33;6.10;;;;;;;17.02;94.30;101811.63;5069705;28;20196;-73
2022/07/22 04:21:47;;;;;;;14.47;6.37;;;;;;;17.05;94.37;101811.66;5093234;28;20267;-73
2022/07/22 04:24:12;;;;;;;14.13;6.17;;;;;;;17.03;93.62;101818.53;5070696;28;20280;-73
2022/07/22 04:26:38;;;;;;;13.07;5.33;;;;;;;17.07;94.51;101819.41;5086971;28;20558;-73
2022/07/22 04:29:05;;;;;;;13.37;5.50;;;;;;;17.08;94.37;101822.03;5070554;28;20208;-73
2022/07/22 04:31:30;;;;;;;10.57;5.30;;;;;;;17.04;94.35;101814.22;5085368;28;20177;-73
2022/07/22 04:34:03;;;;;;;10.40;5.10;;;;;;;17.07;95.00;101820.28;5070196;28;20172;-73
2022/07/22 04:36:28;;;;;;;12.23;6.30;;;;;;;17.01;95.77;101820.25;5070648;28;20249;-73
2022/07/22 04:38:54;;;;;;;14.47;6.73;;;;;;;16.95;96.10;101827.94;5067953;28;20223;-73
2022/07/22 04:41:20;;;;;;;11.03;6.70;;;;;;;16.94;96.60;101822.78;5070601;28;20310;-73
2022/07/22 04:43:45;;;;;;;9.47;6.83;;;;;;;16.93;96.44;101823.59;5088996;28;20271;-73
2022/07/22 04:46:11;;;;;;;8.20;5.30;;;;;;;16.89;96.73;101833.06;5070951;28;20176;-73
2022/07/22 04:48:40;;;;;;;10.97;5.20;;;;;;;16.88;96.11;101833.03;5101126;28;20219;-73
2022/07/22 04:51:06;;;;;;;8.20;4.47;;;;;;;16.88;96.06;101836.50;5093140;28;20220;-73
2022/07/22 04:53:33;;;;;;;9.53;5.37;;;;;;;16.86;96.43;101837.34;5070714;28;20203;-73
2022/07/22 04:55:59;;;;;;;11.43;5.30;;;;;;;16.79;96.82;101835.53;5070704;28;20673;-73
2022/07/22 04:58:24;;;;;;;10.87;5.40;;;;;;;16.85;97.20;101836.47;5070400;28;20221;-73
2022/07/22 05:00:50;;;;;;;7.60;4.10;;;;;;;16.85;97.02;101833.88;5070520;28;20200;-73
2022/07/22 05:03:16;;;;;;;7.20;3.40;;;;;;;16.79;96.56;101831.25;5070400;28;20257;-73
2022/07/22 05:05:42;;;;;;;6.70;3.50;;;;;;;16.74;97.40;101840.69;5070523;28;20211;-73
2022/07/22 05:08:08;;;;;;;6.17;3.87;;;;;;;16.77;97.55;101843.28;5070507;28;20832;-73
2022/07/22 05:10:34;;;;;;;7.20;4.43;;;;;;;16.74;97.48;101845.84;5070604;28;20249;-73
2022/07/22 05:13:00;;;;;;;5.20;4.00;;;;;;;16.76;97.77;101833.78;5070334;28;20201;-74
2022/07/22 05:15:26;;;;;;;5.83;4.13;;;;;;;16.77;98.10;101835.50;5040540;28;20220;-73
2022/07/22 05:17:51;;;;;;;7.73;4.83;;;;;;;16.74;97.82;101832.03;5069895;28;20199;-73
2022/07/22 05:20:21;;;;;;;8.00;5.00;;;;;;;16.74;98.08;101832.91;5053831;28;20204;-73
2022/07/22 05:22:47;;;;;;;10.03;5.50;;;;;;;16.76;98.22;101838.97;5070506;28;20975;-74
2022/07/22 05:25:16;;;;;;;8.47;5.40;;;;;;;16.74;98.34;101840.69;5070613;28;20189;-73
2022/07/22 05:27:50;;;;;;;9.13;5.70;;;;;;;16.86;97.89;101842.53;5070358;28;20184;-73
2022/07/22 05:30:17;;;;;;;8.47;5.37;;;;;;;16.86;97.69;101851.13;5092251;28;20208;-73
2022/07/22 05:32:43;;;;;;;9.00;5.10;;;;;;;16.91;97.42;101849.44;5070305;28;20191;-74
2022/07/22 05:35:10;;;;;;;10.83;5.30;;;;;;;16.96;97.09;101850.41;5070271;28;20177;-73
2022/07/22 05:37:36;;;;;;;9.70;4.87;;;;;;;17.00;96.83;101848.69;5066604;28;20184;-74
2022/07/22 05:40:02;;;;;;;8.13;4.27;;;;;;;17.05;96.66;101854.78;5070382;28;20252;-73
2022/07/22 05:42:28;;;;;;;10.67;4.57;;;;;;;17.05;95.67;101847.91;5083993;28;20270;-73
2022/07/22 05:44:54;;;;;;;12.53;4.80;;;;;;;17.20;94.60;101852.31;5080958;28;20634;-73
2022/07/22 05:47:20;;;;;;;7.67;4.40;;;;;;;17.25;94.51;101851.50;5070299;28;20712;-73
2022/07/22 05:49:45;;;;;;;7.90;4.53;;;;;;;17.31;94.14;101854.16;5070108;28;20251;-73
2022/07/22 05:52:12;;;;;;;11.00;5.13;;;;;;;17.29;93.72;101860.16;5070071;28;20631;-72
2022/07/22 05:54:39;;;;;;;8.97;5.17;;;;;;;17.18;92.83;101852.31;5052443;28;20181;-72
2022/07/22 05:57:08;;;;;;;7.77;4.60;;;;;;;17.30;92.50;101852.41;5069999;28;20185;-72
2022/07/22 05:59:33;;;;;;;10.70;4.87;;;;;;;17.36;92.99;101852.47;5070191;28;20245;-71
2022/07/22 06:01:59;;;;;;;13.43;5.10;;;;;;;17.34;92.78;101858.47;5070143;28;20184;-72
2022/07/22 06:04:44;;;;;;;8.30;4.33;;;;;;;17.23;92.33;101860.13;5091348;28;20267;-72
2022/07/22 06:07:10;;;;;;;12.70;4.33;;;;;;;17.22;93.08;101858.41;5069899;28;20278;-71
2022/07/22 06:09:37;;;;;;;8.97;4.03;;;;;;;17.17;92.49;101858.34;5067682;28;20268;-72
2022/07/22 06:12:03;;;;;;;7.50;3.83;;;;;;;17.16;92.42;101860.91;5072293;28;20184;-71
2022/07/22 06:14:30;;;;;;;10.53;3.90;;;;;;;17.14;92.50;101862.63;5076938;28;20192;-71
2022/07/22 06:16:55;;;;;;;8.07;4.03;;;;;;;17.17;93.04;101863.50;5063223;28;20203;-71
2022/07/22 06:19:21;;;;;;;5.57;3.43;;;;;;;17.13;92.44;101866.94;5070505;28;20201;-72
2022/07/22 06:21:46;;;;;;;7.37;3.80;;;;;;;17.08;92.23;101865.16;5070755;28;20547;-72
2022/07/22 06:24:13;;;;;;;7.03;4.03;;;;;;;17.06;91.85;101857.38;5054126;28;20193;-71
2022/07/22 06:26:39;;;;;;;13.30;4.07;;;;;;;17.08;91.21;101860.84;5069607;28;20177;-72
2022/07/22 06:29:04;;;;;;;10.23;4.27;;;;;;;17.25;90.49;101861.88;5069971;28;20283;-71
2022/07/22 06:31:30;;;;;;;9.10;4.30;;;;;;;17.43;90.26;101867.25;5073490;28;20755;-71
2022/07/22 06:33:55;;;;;;;9.27;4.57;;;;;;;17.55;89.42;101861.28;5073188;28;20793;-72
2022/07/22 06:36:24;;;;;;;10.37;4.23;;;;;;;17.73;88.96;101857.09;5073254;28;20214;-72
2022/07/22 06:38:49;;;;;;;8.67;4.17;;;;;;;17.98;87.93;101855.50;5073434;28;20208;-72
2022/07/22 06:41:19;;;;;;;9.23;3.57;;;;;;;18.30;86.09;101859.13;5091478;28;20600;-71
2022/07/22 06:44:13;;;;;;;10.83;3.77;;;;;;;18.50;84.95;101855.78;5091345;28;20551;-71
2022/07/22 06:46:45;;;;;;;9.33;4.00;;;;;;;18.51;85.67;101860.09;5056125;28;20237;-72
2022/07/22 06:49:11;;;;;;;9.37;4.47;;;;;;;18.46;85.28;101856.63;5091417;28;20212;-72
2022/07/22 06:51:37;;;;;;;10.23;4.60;;;;;;;18.45;85.08;101859.22;5073107;28;20846;-72
2022/07/22 06:54:02;;;;;;;10.33;3.83;;;;;;;18.37;84.08;101863.53;5073285;28;20183;-72
2022/07/22 06:56:28;;;;;;;9.43;4.13;;;;;;;18.35;84.23;101862.63;5056394;28;20199;-72
2022/07/22 06:58:53;;;;;;;13.00;4.60;;;;;;;18.28;84.41;101868.66;5091152;28;21923;-71
2022/07/22 07:01:19;;;;;;;10.33;3.67;;;;;;;18.24;84.50;101867.75;5047502;28;20181;-72
2022/07/22 07:03:53;;;;;;;10.00;3.77;;;;;;;18.21;83.77;101869.47;5095134;28;20663;-72
2022/07/22 07:06:18;;;;;;;11.10;3.87;;;;;;;18.25;83.51;101866.03;5072441;28;20346;-72
2022/07/22 07:09:07;;;;;;;10.53;3.47;;;;;;;18.52;83.04;101861.84;5090509;28;20255;-71
2022/07/22 07:11:34;;;;;;;11.23;3.80;;;;;;;18.69;83.45;101861.88;5072560;28;20188;-71
2022/07/22 07:14:02;;;;;;;11.10;3.33;;;;;;;18.92;81.63;101866.28;5072427;28;20259;-71
2022/07/22 07:16:28;;;;;;;13.50;3.70;;;;;;;19.02;80.53;101862.81;5072186;28;20192;-72
2022/07/22 07:18:53;;;;;;;8.83;3.27;;;;;;;19.11;79.99;101867.19;5072484;28;20538;-72
2022/07/22 07:21:19;;;;;;;9.37;3.67;;;;;;;19.20;79.27;101862.84;5077893;28;20302;-71
2022/07/22 07:23:44;;;;;;;10.03;3.53;;;;;;;19.13;79.76;101862.84;5072425;28;20204;-71
2022/07/22 07:26:10;;;;;;;8.20;2.90;;;;;;;19.34;78.18;101860.31;5083468;28;20194;-72
2022/07/22 07:28:36;;;;;;;7.73;2.90;;;;;;;19.28;78.45;101868.94;5069611;28;20207;-71
2022/07/22 07:31:24;;;;;;;9.43;3.20;;;;;;;19.08;78.33;101868.06;5089538;28;20776;-71
2022/07/22 07:33:51;;;;;;;10.90;3.60;;;;;;;19.07;78.61;101868.03;5072355;28;20180;-71
2022/07/22 07:36:17;;;;;;;12.97;3.70;;;;;;;19.07;78.36;101865.44;5100362;28;20207;-72
2022/07/22 07:38:47;;;;;;;13.23;3.77;;;;;;;18.90;78.86;101862.81;5072272;28;20211;-74
2022/07/22 07:41:16;;;;;;;7.77;3.23;;;;;;;18.80;78.35;101875.78;5077181;28;20284;-71
2022/07/22 07:43:42;;;;;;;11.43;3.17;;;;;;;18.66;78.86;101873.13;5070849;28;20172;-71
2022/07/22 07:46:08;;;;;;;9.60;3.10;;;;;;;18.67;78.26;101874.00;5071628;28;20183;-71
2022/07/22 07:48:34;;;;;;;10.17;2.97;;;;;;;18.61;78.86;101874.84;5060784;28;20211;-70
2022/07/22 07:51:00;;;;;;;8.90;3.53;;;;;;;18.76;78.18;101879.22;5061609;28;20180;-70
2022/07/22 07:53:26;;;;;;;11.93;3.40;;;;;;;18.98;77.63;101875.81;5090076;28;20195;-70
2022/07/22 07:55:52;;;;;;;12.03;3.23;;;;;;;19.20;77.38;101874.97;5071719;28;20187;-70
2022/07/22 07:58:18;;;;;;;8.90;2.87;;;;;;;19.34;75.11;101871.53;5071780;28;20184;-71
2022/07/22 08:00:45;;;;;;;9.90;3.17;;;;;;;19.64;75.68;101876.75;5089928;28;20200;-71
2022/07/22 08:03:11;;;;;;;7.83;2.77;;;;;;;19.67;74.31;101884.50;5071925;28;20188;-71
2022/07/22 08:05:38;;;;;;;8.63;3.00;;;;;;;19.63;73.83;101884.53;5071829;28;20176;-70
2022/07/22 08:08:07;;;;;;;10.17;2.73;;;;;;;19.58;73.13;101894.91;5071434;28;20211;-71
2022/07/22 08:10:33;;;;;;;9.97;2.73;;;;;;;19.36;72.94;101895.81;5071670;28;20196;-70
2022/07/22 08:13:19;;;;;;;8.40;2.53;;;;;;;19.47;71.52;101893.19;5048520;28;20184;-73
2022/07/22 08:16:04;;;;;;;9.20;2.67;;;;;;;19.49;72.22;101894.91;5089303;28;20258;-70
2022/07/22 08:18:30;;;;;;;8.57;2.80;;;;;;;19.58;71.44;101897.50;5093846;28;20176;-71
2022/07/22 08:20:57;;;;;;;9.60;2.77;;;;;;;19.72;70.39;101900.97;5071743;28;20230;-71
2022/07/22 08:23:57;;;;;;;10.83;2.80;;;;;;;19.76;71.20;101896.66;5072784;28;20191;-70
2022/07/22 08:26:24;;;;;;;8.13;2.77;;;;;;;19.78;70.06;101907.91;5070526;28;20589;-71
2022/07/22 08:28:49;;;;;;;7.73;2.27;;;;;;;19.73;69.80;101915.72;5089265;28;20209;-72
2022/07/22 08:31:15;;;;;;;10.30;3.30;;;;;;;19.66;70.14;101913.97;5071158;28;20573;-71
2022/07/22 08:33:40;;;;;;;11.73;3.20;;;;;;;19.74;69.79;101908.78;5071286;28;20180;-71
2022/07/22 08:36:07;;;;;;;7.50;2.40;;;;;;;19.64;69.60;101912.25;5069954;28;20265;-70
2022/07/22 08:38:33;;;;;;;8.80;2.37;;;;;;;19.81;69.39;101913.97;5054406;28;20180;-71
2022/07/22 08:41:00;;;;;;;10.97;2.60;;;;;;;19.94;69.04;101909.63;5054572;28;20197;-70
2022/07/22 08:43:26;;;;;;;9.47;2.90;;;;;;;20.11;68.03;101913.09;5088872;28;20284;-71
2022/07/22 08:45:53;;;;;;;11.77;2.80;;;;;;;20.21;68.00;101915.66;5052302;28;20177;-71
2022/07/22 08:48:20;;;;;;;7.23;2.40;;;;;;;20.42;67.75;101914.72;5070563;28;20288;-71
2022/07/22 08:51:04;;;;;;;10.13;2.53;;;;;;;20.50;65.91;101907.78;5071118;28;20200;-71
2022/07/22 08:53:34;;;;;;;8.73;2.67;;;;;;;20.41;65.83;101910.41;5070243;28;20214;-70
2022/07/22 08:56:06;;;;;;;6.47;2.37;;;;;;;20.62;64.20;101913.78;5070599;28;20764;-72
2022/07/22 08:58:32;;;;;;;10.03;2.33;;;;;;;20.86;63.77;101907.59;5070890;28;20572;-71
2022/07/22 09:01:05;;;;;;;10.47;2.70;;;;;;;21.09;62.75;101913.56;5069706;28;20199;-71
2022/07/22 09:03:31;;;;;;;6.03;2.20;;;;;;;20.87;64.15;101917.13;5086943;28;20180;-70
2022/07/22 09:05:59;;;;;;;8.60;2.77;;;;;;;20.46;65.71;101925.13;5092934;28;20183;-71
2022/07/22 09:08:24;;;;;;;6.87;2.47;;;;;;;20.56;65.73;101929.44;5088670;28;20204;-70
2022/07/22 09:10:57;;;;;;;8.77;2.90;;;;;;;20.57;66.23;101920.75;5070534;28;20204;-71
2022/07/22 09:13:44;;;;;;;6.50;2.57;;;;;;;20.34;66.52;101922.56;5087354;28;20230;-70
2022/07/22 09:16:40;;;;;;;9.17;2.67;;;;;;;20.28;66.10;101925.19;5096296;28;20188;-70
2022/07/22 09:19:32;;;;;;;8.23;2.30;;;;;;;20.40;66.25;101929.50;5088631;28;20257;-71
2022/07/22 09:22:38;;;;;;;5.90;2.20;;;;;;;20.63;66.83;101927.69;5087003;28;20267;-71
2022/07/22 09:25:17;;;;;;;7.77;2.37;;;;;;;20.63;65.70;101925.06;5095702;28;20180;-71
2022/07/22 09:28:06;;;;;;;11.50;3.33;;;;;;;20.66;66.24;101925.03;5088140;28;20659;-71
2022/07/22 09:31:03;;;;;;;9.73;2.90;;;;;;;20.67;66.44;101918.97;5082189;28;20231;-71
2022/07/22 09:33:34;;;;;;;8.90;2.70;;;;;;;20.68;65.50;101918.94;5070322;28;20188;-71
2022/07/22 09:36:16;;;;;;;9.07;3.13;;;;;;;20.71;65.90;101918.94;5097661;28;20200;-71
2022/07/22 09:38:42;;;;;;;9.50;3.13;;;;;;;20.65;66.35;101913.78;5069956;28;20180;-71
2022/07/22 09:41:08;;;;;;;8.27;2.67;;;;;;;20.63;67.01;101914.66;5070306;28;20271;-71
2022/07/22 09:43:37;;;;;;;7.00;2.73;;;;;;;20.92;65.79;101923.22;5070091;28;20267;-71
2022/07/22 09:46:04;;;;;;;9.13;2.80;;;;;;;20.79;63.83;101918.91;5067814;28;20275;-71
2022/07/22 09:48:50;;;;;;;8.63;2.47;;;;;;;21.17;62.83;101916.97;5049715;28;20281;-71
2022/07/22 09:51:36;;;;;;;6.60;2.43;;;;;;;21.42;62.57;101926.38;5087269;28;20223;-70
2022/07/22 09:54:17;;;;;;;6.77;2.80;;;;;;;21.62;61.27;101920.13;5070496;28;20271;-71
2022/07/22 09:56:43;;;;;;;5.77;2.33;;;;;;;22.19;60.05;101916.09;5070223;28;20191;-71
2022/07/22 09:59:08;;;;;;;6.80;2.60;;;;;;;22.97;58.10;101912.50;5070518;28;20192;-71
2022/07/22 10:01:38;;;;;;;7.40;2.00;;;;;;;22.71;56.38;101921.59;5069939;28;20816;-71
2022/07/22 10:04:06;;;;;;;8.20;2.50;;;;;;;22.35;57.45;101920.28;5073829;28;20185;-72
2022/07/22 10:06:34;;;;;;;4.97;2.27;;;;;;;22.07;57.53;101924.06;5073554;28;20227;-71
2022/07/22 10:08:59;;;;;;;6.17;2.27;;;;;;;21.87;57.39;101928.59;5074055;28;20244;-72
2022/07/22 10:11:25;;;;;;;8.17;2.70;;;;;;;21.91;58.23;101927.69;5090748;28;20183;-71
2022/07/22 10:13:52;;;;;;;7.90;2.70;;;;;;;22.03;57.02;101928.44;5092140;28;20558;-72
2022/07/22 10:16:18;;;;;;;6.70;1.90;;;;;;;22.60;56.21;101924.34;5073338;28;20654;-72
2022/07/22 10:18:46;;;;;;;7.27;2.40;;;;;;;22.91;55.09;101917.84;5096368;28;20185;-72
2022/07/22 10:21:14;;;;;;;8.33;2.63;;;;;;;22.88;55.71;101919.63;5073570;28;20172;-72
2022/07/22 10:24:09;;;;;;;9.23;2.47;;;;;;;22.13;56.99;101927.47;5095759;28;20176;-72
2022/07/22 10:26:55;;;;;;;6.70;2.13;;;;;;;21.78;58.48;101929.56;5056939;28;20851;-72
2022/07/22 10:29:46;;;;;;;5.97;2.47;;;;;;;21.61;58.83;101922.72;5089722;28;20212;-72
2022/07/22 10:32:15;;;;;;;7.20;2.40;;;;;;;21.68;59.75;101930.47;5090643;28;20197;-72
2022/07/22 10:34:41;;;;;;;11.23;2.80;;;;;;;21.56;58.44;101938.41;5091573;28;20265;-72
2022/07/22 10:37:34;;;;;;;7.23;2.40;;;;;;;21.33;59.00;101945.53;5072986;28;20259;-72
2022/07/22 10:40:24;;;;;;;6.30;2.30;;;;;;;21.15;59.04;101943.03;5087646;28;20265;-72
2022/07/22 10:43:03;;;;;;;8.77;2.60;;;;;;;21.09;58.70;101947.44;5092716;28;20638;-72
2022/07/22 10:45:41;;;;;;;7.43;2.10;;;;;;;20.89;58.81;101951.84;5073274;28;20230;-72
2022/07/22 10:48:09;;;;;;;6.20;2.47;;;;;;;20.84;57.80;101945.78;5072895;28;20691;-72
2022/07/22 10:50:37;;;;;;;7.00;2.47;;;;;;;20.89;58.92;101954.44;5073447;28;20215;-72
2022/07/22 10:53:04;;;;;;;5.47;2.13;;;;;;;20.98;58.44;101949.22;5090021;28;20173;-72
2022/07/22 10:55:30;;;;;;;5.30;1.90;;;;;;;21.02;58.15;101946.63;5090697;28;20188;-72
2022/07/22 10:57:56;;;;;;;5.23;1.90;;;;;;;21.22;57.95;101947.34;5072697;28;20188;-72
2022/07/22 11:00:22;;;;;;;6.43;2.00;;;;;;;21.41;56.62;101948.06;5091214;28;20289;-72
2022/07/22 11:02:47;;;;;;;8.33;2.40;;;;;;;21.76;56.98;101938.28;5073165;28;20196;-72
2022/07/22 11:05:13;;;;;;;8.23;1.90;;;;;;;21.82;54.90;101940.81;5090814;28;20184;-72
2022/07/22 11:07:44;;;;;;;7.63;2.70;;;;;;;21.94;56.85;101935.50;5090858;28;20188;-72
2022/07/22 11:10:11;;;;;;;6.57;2.30;;;;;;;21.90;55.88;101926.84;5082296;28;20285;-72
2022/07/22 11:12:37;;;;;;;6.23;1.90;;;;;;;21.91;56.52;101941.63;5091032;28;20289;-72
2022/07/22 11:15:07;;;;;;;5.50;2.00;;;;;;;21.88;55.71;101943.41;5088014;28;20184;-71
2022/07/22 11:17:36;;;;;;;6.30;1.97;;;;;;;21.70;55.69;101941.78;5090787;28;20184;-71
2022/07/22 11:20:07;;;;;;;5.53;1.83;;;;;;;21.68;55.80;101945.25;5090015;28;20200;-71
2022/07/22 11:22:32;;;;;;;5.80;2.10;;;;;;;22.06;54.67;101941.47;5090128;28;20191;-72
2022/07/22 11:25:01;;;;;;;5.07;1.90;;;;;;;22.41;52.31;101935.00;5072606;28;20180;-71
2022/07/22 11:27:27;;;;;;;5.83;2.20;;;;;;;22.73;50.72;101936.38;5072101;28;20200;-71